sensor_id;sensor_type;location;lat;lon;timestamp;pressure;altitude;pressure_sealevel;temperature;humidity
61506;BME280;47366;51.916;4.574;2022-10-31T00:01:29;102152.63;;;13.23;85.96
61506;BME280;47366;51.916;4.574;2022-10-31T00:03:55;102150.16;;;13.18;85.89
61506;BME280;47366;51.916;4.574;2022-10-31T00:06:21;102150.25;;;13.16;86.15
61506;BME280;47366;51.916;4.574;2022-10-31T00:08:51;102152.78;;;13.20;86.18
61506;BME280;47366;51.916;4.574;2022-10-31T00:11:17;102148.41;;;13.17;86.15
61506;BME280;47366;51.916;4.574;2022-10-31T00:13:42;102147.59;;;13.15;86.28
61506;BME280;47366;51.916;4.574;2022-10-31T00:16:15;102144.00;;;13.14;86.08
61506;BME280;47366;51.916;4.574;2022-10-31T00:18:41;102154.00;;;13.14;85.92
61506;BME280;47366;51.916;4.574;2022-10-31T00:21:06;102150.41;;;13.13;86.53
61506;BME280;47366;51.916;4.574;2022-10-31T00:23:32;102146.78;;;13.13;86.25
61506;BME280;47366;51.916;4.574;2022-10-31T00:26:03;102158.56;;;13.13;86.14
61506;BME280;47366;51.916;4.574;2022-10-31T00:28:30;102158.69;;;13.10;86.37
61506;BME280;47366;51.916;4.574;2022-10-31T00:30:59;102158.00;;;13.07;86.19
61506;BME280;47366;51.916;4.574;2022-10-31T00:33:24;102168.00;;;13.06;86.38
61506;BME280;47366;51.916;4.574;2022-10-31T00:35:50;102164.47;;;13.04;86.39
61506;BME280;47366;51.916;4.574;2022-10-31T00:38:15;102169.97;;;13.03;86.40
61506;BME280;47366;51.916;4.574;2022-10-31T00:40:41;102170.16;;;13.00;86.64
61506;BME280;47366;51.916;4.574;2022-10-31T00:43:06;102172.06;;;12.98;86.51
61506;BME280;47366;51.916;4.574;2022-10-31T00:45:31;102173.09;;;12.95;86.37
61506;BME280;47366;51.916;4.574;2022-10-31T00:47:57;102172.13;;;12.96;86.62
61506;BME280;47366;51.916;4.574;2022-10-31T00:50:22;102166.84;;;12.93;86.60
61506;BME280;47366;51.916;4.574;2022-10-31T00:52:47;102172.44;;;12.90;86.66
61506;BME280;47366;51.916;4.574;2022-10-31T00:55:13;102169.88;;;12.87;86.77
61506;BME280;47366;51.916;4.574;2022-10-31T00:57:38;102162.69;;;12.86;86.79
61506;BME280;47366;51.916;4.574;2022-10-31T01:00:04;102150.13;;;12.83;86.82
61506;BME280;47366;51.916;4.574;2022-10-31T01:02:29;102140.44;;;12.78;86.82
61506;BME280;47366;51.916;4.574;2022-10-31T01:04:54;102132.34;;;12.76;86.48
61506;BME280;47366;51.916;4.574;2022-10-31T01:07:20;102149.59;;;12.75;86.61
61506;BME280;47366;51.916;4.574;2022-10-31T01:09:45;102152.59;;;12.70;86.62
61506;BME280;47366;51.916;4.574;2022-10-31T01:12:10;102149.88;;;12.70;86.98
61506;BME280;47366;51.916;4.574;2022-10-31T01:14:36;102143.63;;;12.68;86.92
61506;BME280;47366;51.916;4.574;2022-10-31T01:17:01;102147.38;;;12.66;86.87
61506;BME280;47366;51.916;4.574;2022-10-31T01:19:26;102142.00;;;12.64;86.82
61506;BME280;47366;51.916;4.574;2022-10-31T01:21:54;102140.38;;;12.60;86.79
61506;BME280;47366;51.916;4.574;2022-10-31T01:24:20;102145.09;;;12.57;86.97
61506;BME280;47366;51.916;4.574;2022-10-31T01:26:45;102135.38;;;12.51;86.97
61506;BME280;47366;51.916;4.574;2022-10-31T01:29:10;102142.75;;;12.49;87.09
61506;BME280;47366;51.916;4.574;2022-10-31T01:31:38;102136.53;;;12.47;87.21
61506;BME280;47366;51.916;4.574;2022-10-31T01:34:04;102142.88;;;12.46;87.27
61506;BME280;47366;51.916;4.574;2022-10-31T01:36:35;102131.31;;;12.42;87.09
61506;BME280;47366;51.916;4.574;2022-10-31T01:39:04;102125.06;;;12.40;86.89
61506;BME280;47366;51.916;4.574;2022-10-31T01:41:32;102126.97;;;12.38;86.98
61506;BME280;47366;51.916;4.574;2022-10-31T01:44:01;102127.94;;;12.37;87.35
61506;BME280;47366;51.916;4.574;2022-10-31T01:46:37;102127.13;;;12.35;87.70
61506;BME280;47366;51.916;4.574;2022-10-31T01:49:11;102117.28;;;12.32;87.29
61506;BME280;47366;51.916;4.574;2022-10-31T01:51:42;102114.56;;;12.32;87.52
61506;BME280;47366;51.916;4.574;2022-10-31T01:54:14;102125.44;;;12.32;87.43
61506;BME280;47366;51.916;4.574;2022-10-31T01:56:42;102119.09;;;12.32;87.45
61506;BME280;47366;51.916;4.574;2022-10-31T01:59:11;102123.81;;;12.28;87.50
61506;BME280;47366;51.916;4.574;2022-10-31T02:01:37;102129.31;;;12.27;87.25
61506;BME280;47366;51.916;4.574;2022-10-31T02:04:03;102123.06;;;12.25;87.41
61506;BME280;47366;51.916;4.574;2022-10-31T02:06:38;102127.78;;;12.21;87.25
61506;BME280;47366;51.916;4.574;2022-10-31T02:09:06;102124.19;;;12.21;87.41
61506;BME280;47366;51.916;4.574;2022-10-31T02:11:32;102126.16;;;12.17;87.56
61506;BME280;47366;51.916;4.574;2022-10-31T02:14:01;102127.03;;;12.18;87.74
61506;BME280;47366;51.916;4.574;2022-10-31T02:16:26;102123.59;;;12.14;87.84
61506;BME280;47366;51.916;4.574;2022-10-31T02:18:52;102129.03;;;12.14;87.70
61506;BME280;47366;51.916;4.574;2022-10-31T02:32:21;102118.22;;;12.13;88.37
61506;BME280;47366;51.916;4.574;2022-10-31T02:40:30;102122.84;;;12.10;87.84
61506;BME280;47366;51.916;4.574;2022-10-31T02:45:47;102120.22;;;12.09;88.25
61506;BME280;47366;51.916;4.574;2022-10-31T02:48:19;102118.53;;;12.06;87.98
61506;BME280;47366;51.916;4.574;2022-10-31T02:50:55;102114.13;;;12.04;87.93
61506;BME280;47366;51.916;4.574;2022-10-31T02:53:21;102126.09;;;12.00;88.12
61506;BME280;47366;51.916;4.574;2022-10-31T02:56:14;102125.28;;;11.98;87.93
61506;BME280;47366;51.916;4.574;2022-10-31T02:58:43;102124.41;;;11.97;88.26
61506;BME280;47366;51.916;4.574;2022-10-31T03:01:20;102126.34;;;11.94;88.34
61506;BME280;47366;51.916;4.574;2022-10-31T03:04:02;102116.53;;;11.91;88.35
61506;BME280;47366;51.916;4.574;2022-10-31T03:06:57;102114.78;;;11.90;88.25
61506;BME280;47366;51.916;4.574;2022-10-31T03:12:33;102123.09;;;11.85;88.08
61506;BME280;47366;51.916;4.574;2022-10-31T03:15:17;102127.56;;;11.86;88.26
61506;BME280;47366;51.916;4.574;2022-10-31T03:20:34;102125.16;;;11.80;88.01
61506;BME280;47366;51.916;4.574;2022-10-31T03:23:02;102129.78;;;11.78;88.31
61506;BME280;47366;51.916;4.574;2022-10-31T03:25:29;102127.19;;;11.75;88.19
61506;BME280;47366;51.916;4.574;2022-10-31T03:27:58;102136.28;;;11.74;88.08
61506;BME280;47366;51.916;4.574;2022-10-31T03:30:26;102139.06;;;11.73;88.35
61506;BME280;47366;51.916;4.574;2022-10-31T03:32:54;102138.28;;;11.71;88.27
61506;BME280;47366;51.916;4.574;2022-10-31T03:35:23;102133.78;;;11.69;88.13
61506;BME280;47366;51.916;4.574;2022-10-31T03:37:51;102136.50;;;11.69;88.38
61506;BME280;47366;51.916;4.574;2022-10-31T03:40:20;102132.09;;;11.67;88.55
61506;BME280;47366;51.916;4.574;2022-10-31T03:42:51;102125.78;;;11.66;88.58
61506;BME280;47366;51.916;4.574;2022-10-31T03:45:24;102116.63;;;11.69;88.60
61506;BME280;47366;51.916;4.574;2022-10-31T03:47:51;102113.22;;;11.64;88.56
61506;BME280;47366;51.916;4.574;2022-10-31T03:50:18;102121.38;;;11.64;88.27
61506;BME280;47366;51.916;4.574;2022-10-31T03:52:49;102125.13;;;11.61;88.45
61506;BME280;47366;51.916;4.574;2022-10-31T03:55:56;102123.22;;;11.63;89.05
61506;BME280;47366;51.916;4.574;2022-10-31T03:59:00;102118.56;;;11.65;89.37
61506;BME280;47366;51.916;4.574;2022-10-31T04:01:29;102120.63;;;11.60;89.71
61506;BME280;47366;51.916;4.574;2022-10-31T04:03:56;102123.28;;;11.62;90.02
61506;BME280;47366;51.916;4.574;2022-10-31T04:06:24;102121.44;;;11.62;89.77
61506;BME280;47366;51.916;4.574;2022-10-31T04:09:00;102118.72;;;11.62;89.86
61506;BME280;47366;51.916;4.574;2022-10-31T04:11:30;102119.59;;;11.63;89.64
61506;BME280;47366;51.916;4.574;2022-10-31T04:13:57;102113.28;;;11.62;89.66
61506;BME280;47366;51.916;4.574;2022-10-31T04:16:25;102112.47;;;11.60;89.75
61506;BME280;47366;51.916;4.574;2022-10-31T04:18:51;102118.81;;;11.61;89.82
61506;BME280;47366;51.916;4.574;2022-10-31T04:21:17;102121.53;;;11.61;90.19
61506;BME280;47366;51.916;4.574;2022-10-31T04:23:42;102123.34;;;11.60;89.90
61506;BME280;47366;51.916;4.574;2022-10-31T04:26:10;102120.72;;;11.59;89.92
61506;BME280;47366;51.916;4.574;2022-10-31T04:28:36;102121.59;;;11.59;89.85
61506;BME280;47366;51.916;4.574;2022-10-31T04:31:02;102116.22;;;11.58;89.45
61506;BME280;47366;51.916;4.574;2022-10-31T04:33:27;102118.19;;;11.54;89.58
61506;BME280;47366;51.916;4.574;2022-10-31T04:35:52;102118.31;;;11.51;89.72
61506;BME280;47366;51.916;4.574;2022-10-31T04:38:18;102113.91;;;11.48;89.44
61506;BME280;47366;51.916;4.574;2022-10-31T04:40:44;102115.69;;;11.50;89.45
61506;BME280;47366;51.916;4.574;2022-10-31T04:43:10;102123.03;;;11.47;89.75
61506;BME280;47366;51.916;4.574;2022-10-31T04:45:35;102114.94;;;11.46;89.65
61506;BME280;47366;51.916;4.574;2022-10-31T04:48:00;102123.16;;;11.44;89.53
61506;BME280;47366;51.916;4.574;2022-10-31T04:50:25;102114.13;;;11.44;89.50
61506;BME280;47366;51.916;4.574;2022-10-31T04:52:51;102120.50;;;11.43;89.54
61506;BME280;47366;51.916;4.574;2022-10-31T04:55:16;102119.53;;;11.44;89.57
61506;BME280;47366;51.916;4.574;2022-10-31T04:57:43;102116.97;;;11.41;89.29
61506;BME280;47366;51.916;4.574;2022-10-31T05:00:10;102108.97;;;11.38;89.27
61506;BME280;47366;51.916;4.574;2022-10-31T05:02:47;102108.22;;;11.34;89.34
61506;BME280;47366;51.916;4.574;2022-10-31T05:05:14;102112.03;;;11.30;89.29
61506;BME280;47366;51.916;4.574;2022-10-31T05:07:44;102113.84;;;11.30;89.58
61506;BME280;47366;51.916;4.574;2022-10-31T05:10:11;102102.22;;;11.27;89.84
61506;BME280;47366;51.916;4.574;2022-10-31T05:12:38;102103.09;;;11.28;89.75
61506;BME280;47366;51.916;4.574;2022-10-31T05:15:10;102098.47;;;11.30;89.79
61506;BME280;47366;51.916;4.574;2022-10-31T05:17:35;102095.81;;;11.29;89.99
61506;BME280;47366;51.916;4.574;2022-10-31T05:20:00;102086.88;;;11.26;90.14
61506;BME280;47366;51.916;4.574;2022-10-31T05:22:25;102083.34;;;11.24;90.00
61506;BME280;47366;51.916;4.574;2022-10-31T05:24:51;102085.13;;;11.25;90.10
61506;BME280;47366;51.916;4.574;2022-10-31T05:27:16;102081.44;;;11.26;89.84
61506;BME280;47366;51.916;4.574;2022-10-31T05:29:41;102085.22;;;11.22;89.44
61506;BME280;47366;51.916;4.574;2022-10-31T05:32:07;102072.63;;;11.21;89.63
61506;BME280;47366;51.916;4.574;2022-10-31T05:34:32;102077.19;;;11.21;89.69
61506;BME280;47366;51.916;4.574;2022-10-31T05:36:57;102074.63;;;11.18;89.67
61506;BME280;47366;51.916;4.574;2022-10-31T05:39:22;102080.97;;;11.17;89.45
61506;BME280;47366;51.916;4.574;2022-10-31T05:41:48;102082.97;;;11.13;89.50
61506;BME280;47366;51.916;4.574;2022-10-31T05:44:13;102079.44;;;11.11;89.51
61506;BME280;47366;51.916;4.574;2022-10-31T05:46:38;102083.88;;;11.12;89.55
61506;BME280;47366;51.916;4.574;2022-10-31T05:49:03;102091.22;;;11.10;89.81
61506;BME280;47366;51.916;4.574;2022-10-31T05:51:29;102084.09;;;11.08;89.73
61506;BME280;47366;51.916;4.574;2022-10-31T05:53:54;102084.19;;;11.06;89.75
61506;BME280;47366;51.916;4.574;2022-10-31T05:56:19;102078.81;;;11.04;89.85
61506;BME280;47366;51.916;4.574;2022-10-31T05:58:44;102080.50;;;11.07;89.71
61506;BME280;47366;51.916;4.574;2022-10-31T06:01:10;102076.09;;;11.04;89.66
61506;BME280;47366;51.916;4.574;2022-10-31T06:03:35;102075.34;;;11.01;89.69
61506;BME280;47366;51.916;4.574;2022-10-31T06:06:00;102074.41;;;11.02;89.69
61506;BME280;47366;51.916;4.574;2022-10-31T06:08:26;102063.75;;;10.97;89.69
61506;BME280;47366;51.916;4.574;2022-10-31T06:10:52;102079.06;;;10.98;90.00
61506;BME280;47366;51.916;4.574;2022-10-31T06:13:18;102086.28;;;10.99;89.74
61506;BME280;47366;51.916;4.574;2022-10-31T06:15:44;102077.38;;;10.96;89.75
61506;BME280;47366;51.916;4.574;2022-10-31T06:18:09;102084.63;;;10.95;89.67
61506;BME280;47366;51.916;4.574;2022-10-31T06:20:34;102091.00;;;10.94;89.83
61506;BME280;47366;51.916;4.574;2022-10-31T06:23:00;102093.72;;;10.94;89.77
61506;BME280;47366;51.916;4.574;2022-10-31T06:25:26;102098.38;;;10.91;89.92
61506;BME280;47366;51.916;4.574;2022-10-31T06:27:51;102088.34;;;10.93;90.15
61506;BME280;47366;51.916;4.574;2022-10-31T06:30:16;102084.81;;;10.91;89.64
61506;BME280;47366;51.916;4.574;2022-10-31T06:32:42;102084.81;;;10.91;89.86
61506;BME280;47366;51.916;4.574;2022-10-31T06:35:07;102081.09;;;10.93;89.94
61506;BME280;47366;51.916;4.574;2022-10-31T06:37:33;102086.53;;;10.93;89.85
61506;BME280;47366;51.916;4.574;2022-10-31T06:39:58;102086.53;;;10.93;89.94
61506;BME280;47366;51.916;4.574;2022-10-31T06:42:23;102080.22;;;10.93;89.84
61506;BME280;47366;51.916;4.574;2022-10-31T06:44:48;102079.25;;;10.94;90.07
61506;BME280;47366;51.916;4.574;2022-10-31T06:47:14;102083.75;;;10.95;90.40
61506;BME280;47366;51.916;4.574;2022-10-31T06:49:39;102081.78;;;10.98;89.99
61506;BME280;47366;51.916;4.574;2022-10-31T06:52:04;102072.78;;;10.98;90.15
61506;BME280;47366;51.916;4.574;2022-10-31T06:54:30;102076.34;;;10.98;89.98
61506;BME280;47366;51.916;4.574;2022-10-31T06:56:55;102087.09;;;11.01;90.26
61506;BME280;47366;51.916;4.574;2022-10-31T06:59:20;102089.84;;;11.00;90.64
61506;BME280;47366;51.916;4.574;2022-10-31T07:01:46;102096.16;;;11.00;90.44
61506;BME280;47366;51.916;4.574;2022-10-31T07:04:11;102096.16;;;11.00;90.37
61506;BME280;47366;51.916;4.574;2022-10-31T07:06:37;102095.13;;;11.03;90.22
61506;BME280;47366;51.916;4.574;2022-10-31T07:09:03;102106.75;;;11.07;90.46
61506;BME280;47366;51.916;4.574;2022-10-31T07:11:28;102101.22;;;11.08;90.70
61506;BME280;47366;51.916;4.574;2022-10-31T07:13:53;102100.34;;;11.08;91.23
61506;BME280;47366;51.916;4.574;2022-10-31T07:16:19;102096.63;;;11.10;91.59
61506;BME280;47366;51.916;4.574;2022-10-31T07:18:44;102094.75;;;11.12;91.93
61506;BME280;47366;51.916;4.574;2022-10-31T07:21:09;102107.22;;;11.16;92.47
61506;BME280;47366;51.916;4.574;2022-10-31T07:23:35;102102.53;;;11.20;92.05
61506;BME280;47366;51.916;4.574;2022-10-31T07:26:00;102100.63;;;11.22;91.56
61506;BME280;47366;51.916;4.574;2022-10-31T07:28:26;102104.16;;;11.24;91.01
61506;BME280;47366;51.916;4.574;2022-10-31T07:30:53;102095.88;;;11.27;90.54
61506;BME280;47366;51.916;4.574;2022-10-31T07:33:19;102106.69;;;11.29;91.09
61506;BME280;47366;51.916;4.574;2022-10-31T07:35:45;102111.09;;;11.31;90.96
61506;BME280;47366;51.916;4.574;2022-10-31T07:38:12;102107.50;;;11.31;91.19
61506;BME280;47366;51.916;4.574;2022-10-31T07:40:38;102111.97;;;11.32;91.68
61506;BME280;47366;51.916;4.574;2022-10-31T07:43:04;102107.34;;;11.34;91.71
61506;BME280;47366;51.916;4.574;2022-10-31T07:45:29;102108.09;;;11.37;91.88
61506;BME280;47366;51.916;4.574;2022-10-31T07:47:55;102111.56;;;11.41;91.63
61506;BME280;47366;51.916;4.574;2022-10-31T07:50:26;102112.41;;;11.41;91.94
61506;BME280;47366;51.916;4.574;2022-10-31T07:55:28;102114.13;;;11.44;91.88
61506;BME280;47366;51.916;4.574;2022-10-31T08:00:26;102109.66;;;11.43;91.69
61506;BME280;47366;51.916;4.574;2022-10-31T08:03:05;102109.50;;;11.46;91.65
61506;BME280;47366;51.916;4.574;2022-10-31T08:05:31;102111.34;;;11.45;92.47
61506;BME280;47366;51.916;4.574;2022-10-31T08:07:57;102101.31;;;11.47;92.88
61506;BME280;47366;51.916;4.574;2022-10-31T08:10:23;102104.91;;;11.48;93.53
61506;BME280;47366;51.916;4.574;2022-10-31T08:13:20;102106.59;;;11.51;92.96
61506;BME280;47366;51.916;4.574;2022-10-31T08:15:44;102102.94;;;11.52;94.19
61506;BME280;47366;51.916;4.574;2022-10-31T08:18:15;102109.19;;;11.54;92.91
61506;BME280;47366;51.916;4.574;2022-10-31T08:20:41;102097.31;;;11.56;93.21
61506;BME280;47366;51.916;4.574;2022-10-31T08:23:08;102093.56;;;11.59;92.72
61506;BME280;47366;51.916;4.574;2022-10-31T08:25:34;102095.97;;;11.65;92.37
61506;BME280;47366;51.916;4.574;2022-10-31T08:28:00;102098.63;;;11.66;92.54
61506;BME280;47366;51.916;4.574;2022-10-31T08:30:28;102097.56;;;11.71;93.37
61506;BME280;47366;51.916;4.574;2022-10-31T08:32:59;102094.75;;;11.72;92.88
61506;BME280;47366;51.916;4.574;2022-10-31T08:35:25;102098.13;;;11.77;92.88
61506;BME280;47366;51.916;4.574;2022-10-31T08:37:54;102094.31;;;11.81;92.60
61506;BME280;47366;51.916;4.574;2022-10-31T08:40:20;102100.50;;;11.85;92.62
61506;BME280;47366;51.916;4.574;2022-10-31T08:42:45;102109.41;;;11.88;92.88
61506;BME280;47366;51.916;4.574;2022-10-31T08:45:11;102100.22;;;11.91;94.63
61506;BME280;47366;51.916;4.574;2022-10-31T08:47:36;102097.63;;;11.89;94.35
61506;BME280;47366;51.916;4.574;2022-10-31T08:50:01;102090.94;;;11.97;95.75
61506;BME280;47366;51.916;4.574;2022-10-31T08:52:27;102089.81;;;12.01;94.57
61506;BME280;47366;51.916;4.574;2022-10-31T08:54:52;102086.66;;;12.10;93.47
61506;BME280;47366;51.916;4.574;2022-10-31T08:57:17;102088.94;;;12.19;93.98
61506;BME280;47366;51.916;4.574;2022-10-31T08:59:43;102079.69;;;12.23;94.50
61506;BME280;47366;51.916;4.574;2022-10-31T09:02:08;102068.59;;;12.28;93.70
61506;BME280;47366;51.916;4.574;2022-10-31T09:04:33;102072.69;;;12.37;93.60
61506;BME280;47366;51.916;4.574;2022-10-31T09:06:59;102067.91;;;12.42;92.88
61506;BME280;47366;51.916;4.574;2022-10-31T09:09:24;102053.06;;;12.49;93.38
61506;BME280;47366;51.916;4.574;2022-10-31T09:11:49;102049.00;;;12.58;92.81
61506;BME280;47366;51.916;4.574;2022-10-31T09:14:14;102055.81;;;12.66;92.90
61506;BME280;47366;51.916;4.574;2022-10-31T09:16:40;102056.22;;;12.76;93.16
61506;BME280;47366;51.916;4.574;2022-10-31T09:19:05;102041.50;;;12.80;92.65
61506;BME280;47366;51.916;4.574;2022-10-31T09:21:30;102041.34;;;12.83;93.17
61506;BME280;47366;51.916;4.574;2022-10-31T09:23:55;102027.50;;;12.88;92.46
61506;BME280;47366;51.916;4.574;2022-10-31T09:26:21;102028.94;;;12.95;92.53
61506;BME280;47366;51.916;4.574;2022-10-31T09:28:46;102019.69;;;12.99;92.04
61506;BME280;47366;51.916;4.574;2022-10-31T09:31:12;102029.34;;;13.05;91.59
61506;BME280;47366;51.916;4.574;2022-10-31T09:33:37;102033.56;;;13.10;92.29
61506;BME280;47366;51.916;4.574;2022-10-31T09:36:02;102031.47;;;13.15;92.43
61506;BME280;47366;51.916;4.574;2022-10-31T09:38:28;102023.06;;;13.20;92.51
61506;BME280;47366;51.916;4.574;2022-10-31T09:44:12;102020.88;;;13.28;92.29
61506;BME280;47366;51.916;4.574;2022-10-31T09:49:34;102026.44;;;13.43;92.01
61506;BME280;47366;51.916;4.574;2022-10-31T09:55:02;102008.97;;;13.47;92.20
61506;BME280;47366;51.916;4.574;2022-10-31T09:57:34;102011.53;;;13.50;91.29
61506;BME280;47366;51.916;4.574;2022-10-31T10:00:01;102009.41;;;13.55;91.48
61506;BME280;47366;51.916;4.574;2022-10-31T10:02:39;102010.03;;;13.60;91.62
61506;BME280;47366;51.916;4.574;2022-10-31T10:05:12;101997.91;;;13.66;91.70
61506;BME280;47366;51.916;4.574;2022-10-31T10:07:44;102004.00;;;13.71;91.38
61506;BME280;47366;51.916;4.574;2022-10-31T10:10:32;101991.88;;;13.76;91.41
61506;BME280;47366;51.916;4.574;2022-10-31T10:16:02;101983.88;;;13.89;91.38
61506;BME280;47366;51.916;4.574;2022-10-31T10:18:42;101983.47;;;13.97;91.37
61506;BME280;47366;51.916;4.574;2022-10-31T10:21:33;101974.91;;;14.03;90.82
61506;BME280;47366;51.916;4.574;2022-10-31T10:27:19;101965.59;;;14.69;89.67
61506;BME280;47366;51.916;4.574;2022-10-31T10:32:42;101955.22;;;15.19;87.47
61506;BME280;47366;51.916;4.574;2022-10-31T10:35:19;101953.00;;;15.40;86.81
61506;BME280;47366;51.916;4.574;2022-10-31T10:37:46;101936.59;;;15.54;86.03
61506;BME280;47366;51.916;4.574;2022-10-31T10:40:20;101937.47;;;15.40;86.20
61506;BME280;47366;51.916;4.574;2022-10-31T10:43:22;101945.56;;;15.27;86.83
61506;BME280;47366;51.916;4.574;2022-10-31T10:51:44;101936.22;;;15.17;87.35
61506;BME280;47366;51.916;4.574;2022-10-31T10:54:32;101931.03;;;15.13;87.26
61506;BME280;47366;51.916;4.574;2022-10-31T10:59:38;101919.47;;;15.09;87.79
61506;BME280;47366;51.916;4.574;2022-10-31T11:02:15;101924.50;;;15.01;87.79
61506;BME280;47366;51.916;4.574;2022-10-31T11:04:42;101935.63;;;14.98;88.09
61506;BME280;47366;51.916;4.574;2022-10-31T11:07:09;101929.97;;;15.01;88.47
61506;BME280;47366;51.916;4.574;2022-10-31T11:09:35;101923.91;;;14.96;88.48
61506;BME280;47366;51.916;4.574;2022-10-31T11:12:09;101918.66;;;14.93;88.52
61506;BME280;47366;51.916;4.574;2022-10-31T11:14:50;101926.75;;;14.94;88.49
61506;BME280;47366;51.916;4.574;2022-10-31T11:17:27;101910.84;;;14.86;88.60
61506;BME280;47366;51.916;4.574;2022-10-31T11:22:43;101904.53;;;14.86;88.84
61506;BME280;47366;51.916;4.574;2022-10-31T11:25:26;101904.72;;;14.83;89.20
61506;BME280;47366;51.916;4.574;2022-10-31T11:28:10;101894.00;;;14.80;89.29
61506;BME280;47366;51.916;4.574;2022-10-31T11:30:45;101901.41;;;14.78;89.19
61506;BME280;47366;51.916;4.574;2022-10-31T11:33:21;101894.88;;;14.80;89.18
61506;BME280;47366;51.916;4.574;2022-10-31T11:35:48;101884.16;;;14.77;89.69
61506;BME280;47366;51.916;4.574;2022-10-31T11:38:17;101877.81;;;14.77;89.47
61506;BME280;47366;51.916;4.574;2022-10-31T11:41:09;101865.06;;;14.77;89.87
61506;BME280;47366;51.916;4.574;2022-10-31T11:43:35;101862.31;;;14.77;89.72
61506;BME280;47366;51.916;4.574;2022-10-31T11:46:10;101855.78;;;14.80;89.88
61506;BME280;47366;51.916;4.574;2022-10-31T11:48:36;101865.75;;;14.81;89.83
61506;BME280;47366;51.916;4.574;2022-10-31T11:51:02;101860.97;;;14.84;89.83
61506;BME280;47366;51.916;4.574;2022-10-31T11:53:32;101864.19;;;14.91;90.09
61506;BME280;47366;51.916;4.574;2022-10-31T11:56:06;101862.75;;;15.00;90.22
61506;BME280;47366;51.916;4.574;2022-10-31T11:58:35;101847.03;;;15.03;89.96
61506;BME280;47366;51.916;4.574;2022-10-31T12:01:00;101843.03;;;15.09;90.12
61506;BME280;47366;51.916;4.574;2022-10-31T12:03:38;101827.81;;;15.19;89.48
61506;BME280;47366;51.916;4.574;2022-10-31T12:08:40;101823.41;;;15.31;88.94
61506;BME280;47366;51.916;4.574;2022-10-31T12:13:59;101795.91;;;15.34;88.78
61506;BME280;47366;51.916;4.574;2022-10-31T12:16:34;101783.13;;;15.35;88.62
61506;BME280;47366;51.916;4.574;2022-10-31T12:30:18;101753.25;;;15.46;88.65
61506;BME280;47366;51.916;4.574;2022-10-31T12:55:29;101695.41;;;15.66;88.49
61506;BME280;47366;51.916;4.574;2022-10-31T12:58:02;101683.59;;;15.66;88.59
61506;BME280;47366;51.916;4.574;2022-10-31T13:00:32;101680.00;;;15.65;88.59
61506;BME280;47366;51.916;4.574;2022-10-31T13:03:32;101671.03;;;15.63;88.55
61506;BME280;47366;51.916;4.574;2022-10-31T13:06:09;101665.34;;;15.54;88.87
61506;BME280;47366;51.916;4.574;2022-10-31T13:08:59;101663.38;;;15.56;89.01
61506;BME280;47366;51.916;4.574;2022-10-31T13:11:40;101650.72;;;15.55;88.89
61506;BME280;47366;51.916;4.574;2022-10-31T13:14:07;101649.50;;;15.59;88.82
61506;BME280;47366;51.916;4.574;2022-10-31T13:16:40;101640.56;;;15.57;88.83
61506;BME280;47366;51.916;4.574;2022-10-31T13:19:30;101634.09;;;15.58;88.81
61506;BME280;47366;51.916;4.574;2022-10-31T13:22:06;101632.16;;;15.60;88.93
61506;BME280;47366;51.916;4.574;2022-10-31T13:27:27;101628.53;;;15.59;89.19
61506;BME280;47366;51.916;4.574;2022-10-31T13:30:01;101616.72;;;15.59;89.27
61506;BME280;47366;51.916;4.574;2022-10-31T13:32:37;101609.44;;;15.59;89.33
61506;BME280;47366;51.916;4.574;2022-10-31T13:35:14;101612.34;;;15.56;89.47
61506;BME280;47366;51.916;4.574;2022-10-31T13:37:46;101613.34;;;15.55;89.99
61506;BME280;47366;51.916;4.574;2022-10-31T13:40:23;101598.06;;;15.53;90.37
61506;BME280;47366;51.916;4.574;2022-10-31T13:43:18;101599.78;;;15.54;90.16
61506;BME280;47366;51.916;4.574;2022-10-31T13:45:52;101587.91;;;15.55;90.16
61506;BME280;47366;51.916;4.574;2022-10-31T13:50:58;101584.19;;;15.56;90.19
61506;BME280;47366;51.916;4.574;2022-10-31T13:53:41;101586.03;;;15.55;90.08
61506;BME280;47366;51.916;4.574;2022-10-31T13:58:33;101581.44;;;15.56;89.94
61506;BME280;47366;51.916;4.574;2022-10-31T14:03:27;101570.06;;;15.49;90.08
61506;BME280;47366;51.916;4.574;2022-10-31T14:05:54;101574.56;;;15.50;89.88
61506;BME280;47366;51.916;4.574;2022-10-31T14:08:23;101570.53;;;15.56;90.02
61506;BME280;47366;51.916;4.574;2022-10-31T14:10:51;101561.56;;;15.54;89.71
61506;BME280;47366;51.916;4.574;2022-10-31T14:18:24;101541.69;;;15.51;90.53
61506;BME280;47366;51.916;4.574;2022-10-31T14:20:50;101538.63;;;15.56;90.03
61506;BME280;47366;51.916;4.574;2022-10-31T14:23:37;101534.25;;;15.54;90.44
61506;BME280;47366;51.916;4.574;2022-10-31T14:31:43;101509.91;;;15.50;91.00
61506;BME280;47366;51.916;4.574;2022-10-31T14:34:32;101510.13;;;15.47;90.93
61506;BME280;47366;51.916;4.574;2022-10-31T14:50:24;101476.94;;;15.41;91.31
61506;BME280;47366;51.916;4.574;2022-10-31T14:52:54;101456.09;;;15.40;91.21
61506;BME280;47366;51.916;4.574;2022-10-31T14:55:24;101455.31;;;15.38;91.45
61506;BME280;47366;51.916;4.574;2022-10-31T14:58:08;101447.34;;;15.35;92.11
61506;BME280;47366;51.916;4.574;2022-10-31T15:00:35;101454.66;;;15.34;92.20
61506;BME280;47366;51.916;4.574;2022-10-31T15:03:14;101441.13;;;15.33;92.14
61506;BME280;47366;51.916;4.574;2022-10-31T15:05:48;101443.19;;;15.29;92.40
61506;BME280;47366;51.916;4.574;2022-10-31T15:08:29;101434.91;;;15.31;92.69
61506;BME280;47366;51.916;4.574;2022-10-31T15:10:56;101434.91;;;15.31;92.37
61506;BME280;47366;51.916;4.574;2022-10-31T15:13:21;101425.97;;;15.28;93.02
61506;BME280;47366;51.916;4.574;2022-10-31T15:15:49;101424.09;;;15.29;92.97